createdAt,value
2018-10-21T00:01:31.286Z,3.13
2018-10-21T00:04:00.824Z,4.10
2018-10-21T00:06:30.945Z,5.20
2018-10-21T00:09:00.667Z,4.40
2018-10-21T00:11:30.477Z,4.93
2018-10-21T00:14:00.509Z,3.40
2018-10-21T00:16:30.398Z,3.83
2018-10-21T00:18:59.927Z,4.83
2018-10-21T00:21:29.432Z,4.13
2018-10-21T00:23:58.975Z,3.43
2018-10-21T00:26:28.507Z,3.33
2018-10-21T00:28:58.016Z,5.70
2018-10-21T00:31:27.561Z,8.07
2018-10-21T00:33:57.097Z,4.50
2018-10-21T00:36:26.631Z,3.43
2018-10-21T00:38:56.766Z,6.10
2018-10-21T00:41:26.311Z,5.00
2018-10-21T00:43:55.817Z,3.70
2018-10-21T00:46:25.309Z,5.70
2018-10-21T00:48:54.934Z,8.03
2018-10-21T00:51:24.496Z,8.70
2018-10-21T00:53:54.077Z,6.97
2018-10-21T00:56:23.887Z,8.53
2018-10-21T00:58:53.812Z,7.53
2018-10-21T01:01:23.826Z,5.60
2018-10-21T01:03:53.339Z,4.87
2018-10-21T01:06:23.125Z,4.53
2018-10-21T01:08:53.153Z,4.70
2018-10-21T01:11:22.589Z,6.47
2018-10-21T01:13:52.220Z,7.37
2018-10-21T01:16:22.298Z,4.67
2018-10-21T01:18:51.856Z,5.40
2018-10-21T01:21:21.765Z,4.90
2018-10-21T01:23:51.814Z,5.23
2018-10-21T01:26:21.363Z,6.03
2018-10-21T01:28:50.916Z,6.87
2018-10-21T01:31:20.440Z,4.13
2018-10-21T01:33:50.305Z,6.27
2018-10-21T01:36:20.251Z,6.67
2018-10-21T01:38:49.420Z,7.43
2018-10-21T01:41:18.952Z,5.67
2018-10-21T01:43:48.525Z,5.97
2018-10-21T01:46:18.367Z,6.17
2018-10-21T01:48:47.964Z,6.57
2018-10-21T01:51:17.588Z,6.73
2018-10-21T01:53:47.094Z,5.03
2018-10-21T01:56:16.641Z,4.57
2018-10-21T01:58:46.833Z,4.33
2018-10-21T02:01:16.327Z,5.30
2018-10-21T02:03:45.843Z,5.43
2018-10-21T02:06:15.373Z,4.70
2018-10-21T02:08:45.365Z,4.77
2018-10-21T02:11:15.016Z,5.57
2018-10-21T02:13:44.530Z,6.20
2018-10-21T02:16:16.392Z,5.30
2018-10-21T02:18:46.194Z,7.13
2018-10-21T02:21:15.731Z,4.17
2018-10-21T02:23:45.273Z,4.03
2018-10-21T02:26:15.360Z,4.43
2018-10-21T02:28:44.826Z,3.43
2018-10-21T02:31:14.370Z,3.70
2018-10-21T02:33:44.109Z,5.23
2018-10-21T02:36:13.812Z,5.37
2018-10-21T02:38:43.345Z,4.40
2018-10-21T02:41:28.622Z,5.47
2018-10-21T02:43:58.172Z,3.20
2018-10-21T02:46:27.893Z,2.97
2018-10-21T02:48:58.606Z,5.03
2018-10-21T02:51:28.191Z,4.20
2018-10-21T02:53:57.670Z,2.70
2018-10-21T02:56:27.550Z,4.20
2018-10-21T02:58:57.140Z,4.13
2018-10-21T03:01:26.984Z,3.70
2018-10-21T03:03:56.897Z,4.27
2018-10-21T03:06:26.449Z,2.80
2018-10-21T03:08:56.552Z,2.80
2018-10-21T03:11:26.337Z,4.97
2018-10-21T03:13:55.906Z,3.10
2018-10-21T03:16:25.710Z,3.53
2018-10-21T03:18:55.235Z,4.33
2018-10-21T03:21:25.213Z,3.30
2018-10-21T03:23:55.285Z,3.80
2018-10-21T03:26:24.772Z,3.70
2018-10-21T03:28:54.291Z,2.67
2018-10-21T03:31:24.010Z,2.90
2018-10-21T03:33:53.592Z,5.17
2018-10-21T03:36:23.432Z,2.80
2018-10-21T03:38:53.047Z,4.20
2018-10-21T03:41:23.046Z,3.23
2018-10-21T03:43:52.498Z,4.83
2018-10-21T03:46:22.485Z,4.97
2018-10-21T03:48:52.157Z,2.67
2018-10-21T03:51:21.784Z,4.20
2018-10-21T03:53:51.585Z,2.40
2018-10-21T03:56:21.131Z,2.60
2018-10-21T03:58:51.111Z,5.37
2018-10-21T04:01:20.613Z,4.70
2018-10-21T04:03:50.136Z,4.27
2018-10-21T04:06:19.720Z,3.23
2018-10-21T04:08:49.627Z,3.20
2018-10-21T04:11:19.171Z,4.97
2018-10-21T04:13:48.687Z,4.23
2018-10-21T04:16:18.650Z,3.17
2018-10-21T04:18:48.131Z,3.63
2018-10-21T04:21:17.662Z,5.97
2018-10-21T04:23:47.161Z,3.90
2018-10-21T04:26:16.699Z,4.10
2018-10-21T04:28:46.209Z,3.60
2018-10-21T04:31:15.753Z,4.70
2018-10-21T04:33:46.215Z,5.50
2018-10-21T04:36:18.668Z,4.37
2018-10-21T04:40:06.286Z,5.47
2018-10-21T04:42:35.787Z,3.43
2018-10-21T04:45:06.345Z,3.30
2018-10-21T04:47:36.220Z,6.93
2018-10-21T04:50:07.427Z,4.87
2018-10-21T04:52:37.026Z,5.90
2018-10-21T04:55:11.898Z,4.37
2018-10-21T04:57:42.588Z,4.47
2018-10-21T05:00:14.857Z,6.80
2018-10-21T05:02:44.351Z,7.73
2018-10-21T05:05:14.794Z,9.50
2018-10-21T05:07:44.437Z,8.57
2018-10-21T05:10:25.496Z,5.07
2018-10-21T05:12:55.118Z,9.13
2018-10-21T05:15:25.601Z,11.60
2018-10-21T05:17:55.240Z,7.07
2018-10-21T05:20:25.309Z,7.73
2018-10-21T05:22:55.248Z,11.27
2018-10-21T05:25:25.035Z,6.13
2018-10-21T05:27:54.680Z,7.57
2018-10-21T05:30:24.568Z,6.63
2018-10-21T05:32:54.083Z,8.77
2018-10-21T05:35:23.610Z,10.50
2018-10-21T05:37:53.513Z,6.63
2018-10-21T05:40:23.630Z,10.80
2018-10-21T05:42:53.097Z,7.87
2018-10-21T05:45:22.629Z,5.33
2018-10-21T05:47:52.629Z,10.60
2018-10-21T05:50:22.492Z,7.97
2018-10-21T05:52:51.980Z,6.47
2018-10-21T05:55:21.531Z,8.30
2018-10-21T05:57:51.407Z,10.13
2018-10-21T06:00:21.213Z,8.73
2018-10-21T06:02:51.066Z,7.33
2018-10-21T06:05:48.648Z,7.47
2018-10-21T06:08:18.607Z,6.80
2018-10-21T06:10:48.625Z,7.87
2018-10-21T06:13:18.650Z,7.10
2018-10-21T06:15:48.564Z,7.80
2018-10-21T06:18:22.583Z,7.67
2018-10-21T06:20:54.593Z,7.13
2018-10-21T06:23:24.195Z,6.43
2018-10-21T06:25:53.844Z,5.53
2018-10-21T06:28:23.994Z,6.77
2018-10-21T06:30:53.513Z,8.07
2018-10-21T06:33:23.070Z,5.60
2018-10-21T06:35:52.702Z,6.20
2018-10-21T06:38:22.671Z,7.40
2018-10-21T06:40:52.391Z,3.63
2018-10-21T06:43:21.929Z,9.70
2018-10-21T06:45:51.907Z,4.30
2018-10-21T06:48:21.470Z,4.77
2018-10-21T06:50:51.035Z,7.00
2018-10-21T06:53:20.550Z,7.20
2018-10-21T06:55:51.196Z,6.03
2018-10-21T06:58:26.317Z,5.57
2018-10-21T07:00:55.884Z,3.93
2018-10-21T07:03:25.430Z,4.73
2018-10-21T07:06:26.834Z,5.60
2018-10-21T07:08:57.542Z,6.57
2018-10-21T07:11:27.151Z,7.90
2018-10-21T07:13:56.838Z,6.10
2018-10-21T07:16:26.387Z,5.97
2018-10-21T07:18:56.297Z,5.33
2018-10-21T07:21:26.490Z,4.07
2018-10-21T07:23:56.036Z,5.67
2018-10-21T07:26:25.542Z,5.23
2018-10-21T07:28:55.087Z,7.93
2018-10-21T07:31:24.639Z,6.73
2018-10-21T07:33:54.287Z,6.67
2018-10-21T07:36:24.262Z,7.33
2018-10-21T07:38:53.757Z,6.50
2018-10-21T07:41:23.278Z,5.43
2018-10-21T07:43:52.840Z,7.40
2018-10-21T07:46:22.704Z,8.60
2018-10-21T07:48:53.036Z,5.73
2018-10-21T07:51:22.571Z,6.10
2018-10-21T07:53:52.190Z,5.83
2018-10-21T07:56:21.804Z,4.77
2018-10-21T07:58:51.372Z,6.40
2018-10-21T08:01:21.152Z,7.97
2018-10-21T08:03:51.105Z,6.60
2018-10-21T08:06:33.359Z,7.80
2018-10-21T08:09:04.654Z,5.23
2018-10-21T08:11:34.209Z,6.00
2018-10-21T08:14:03.767Z,5.73
2018-10-21T08:16:33.408Z,5.90
2018-10-21T08:19:02.930Z,7.27
2018-10-21T08:21:32.525Z,4.37
2018-10-21T08:24:02.077Z,6.13
2018-10-21T08:26:32.084Z,8.57
2018-10-21T08:29:01.619Z,5.47
2018-10-21T08:31:31.193Z,4.63
2018-10-21T08:34:01.218Z,7.10
2018-10-21T08:36:30.727Z,6.93
2018-10-21T08:39:00.246Z,9.20
2018-10-21T08:41:29.782Z,6.17
2018-10-21T08:43:59.334Z,4.83
2018-10-21T08:46:28.892Z,9.37
2018-10-21T08:48:58.470Z,5.33
2018-10-21T08:51:28.391Z,5.47
2018-10-21T08:53:57.987Z,5.80
2018-10-21T08:56:27.543Z,4.83
2018-10-21T08:58:57.770Z,3.03
2018-10-21T09:01:27.358Z,7.00
2018-10-21T09:03:56.883Z,8.47
2018-10-21T09:06:26.839Z,4.20
2018-10-21T09:08:56.456Z,5.33
2018-10-21T09:11:26.028Z,3.93
2018-10-21T09:13:56.032Z,6.80
2018-10-21T09:16:25.642Z,5.43
2018-10-21T09:18:55.191Z,5.50
2018-10-21T09:21:24.797Z,5.10
2018-10-21T09:23:54.783Z,7.57
2018-10-21T09:26:24.286Z,4.13
2018-10-21T09:28:53.752Z,9.27
2018-10-21T09:31:23.859Z,3.53
2018-10-21T09:33:53.404Z,4.10
2018-10-21T09:36:23.430Z,3.70
2018-10-21T09:38:52.953Z,7.63
2018-10-21T09:41:23.007Z,2.30
2018-10-21T09:43:52.865Z,5.50
2018-10-21T09:46:22.410Z,8.03
2018-10-21T09:48:52.176Z,6.30
2018-10-21T09:51:21.726Z,3.93
2018-10-21T09:53:51.868Z,4.23
2018-10-21T09:56:21.445Z,6.67
2018-10-21T09:58:50.937Z,5.90
2018-10-21T10:01:25.698Z,5.70
2018-10-21T10:03:55.233Z,3.30
2018-10-21T10:06:24.807Z,3.93
2018-10-21T10:08:54.360Z,6.93
2018-10-21T10:11:23.973Z,4.83
2018-10-21T10:13:53.661Z,4.30
2018-10-21T10:16:23.261Z,4.10
2018-10-21T10:18:52.785Z,4.00
2018-10-21T10:21:22.394Z,4.77
2018-10-21T10:23:52.087Z,4.70
2018-10-21T10:26:22.081Z,5.83
2018-10-21T10:28:51.617Z,3.60
2018-10-21T10:31:21.159Z,3.13
2018-10-21T10:33:51.301Z,4.27
2018-10-21T10:36:20.858Z,3.50
2018-10-21T10:38:50.813Z,6.80
2018-10-21T10:41:20.753Z,3.97
2018-10-21T10:43:50.323Z,2.73
2018-10-21T10:46:20.231Z,4.50
2018-10-21T10:48:49.873Z,3.83
2018-10-21T10:51:19.415Z,2.20
2018-10-21T10:53:55.705Z,3.50
2018-10-21T10:56:25.235Z,3.93
2018-10-21T10:58:54.733Z,3.50
2018-10-21T11:01:24.211Z,4.60
2018-10-21T11:03:54.244Z,3.43
2018-10-21T11:06:23.815Z,2.27
2018-10-21T11:08:53.335Z,2.97
2018-10-21T11:11:22.881Z,2.50
2018-10-21T11:13:52.463Z,3.63
2018-10-21T11:16:22.446Z,5.87
2018-10-21T11:18:51.914Z,3.23
2018-10-21T11:21:21.741Z,2.87
2018-10-21T11:23:51.298Z,3.83
2018-10-21T11:26:20.764Z,2.97
2018-10-21T11:28:50.309Z,2.20
2018-10-21T11:31:20.053Z,3.43
2018-10-21T11:33:50.095Z,3.77
2018-10-21T11:36:19.931Z,2.87
2018-10-21T11:38:49.573Z,2.87
2018-10-21T11:41:19.176Z,2.63
2018-10-21T11:43:48.694Z,3.90
2018-10-21T11:46:18.279Z,4.50
2018-10-21T11:48:47.857Z,2.40
2018-10-21T11:51:17.355Z,5.03
2018-10-21T11:53:47.233Z,3.13
2018-10-21T11:56:17.140Z,2.30
2018-10-21T11:58:46.624Z,3.80
2018-10-21T12:01:16.464Z,2.10
2018-10-21T12:03:45.916Z,3.00
2018-10-21T12:06:15.493Z,4.03
2018-10-21T12:08:45.013Z,3.60
2018-10-21T12:11:15.083Z,4.77
2018-10-21T12:13:45.037Z,4.33
2018-10-21T12:16:14.558Z,3.40
2018-10-21T12:18:44.315Z,3.53
2018-10-21T12:21:13.798Z,1.37
2018-10-21T12:23:43.699Z,2.50
2018-10-21T12:26:13.220Z,3.47
2018-10-21T12:28:42.753Z,3.27
2018-10-21T12:31:12.293Z,3.67
2018-10-21T12:33:43.994Z,3.63
2018-10-21T12:36:15.241Z,2.93
2018-10-21T12:38:44.789Z,2.17
2018-10-21T12:41:14.389Z,3.90
2018-10-21T12:43:43.952Z,1.73
2018-10-21T12:46:13.552Z,4.10
2018-10-21T12:48:42.995Z,3.00
2018-10-21T12:51:12.835Z,1.47
2018-10-21T12:53:42.340Z,2.57
2018-10-21T12:56:11.894Z,2.13
2018-10-21T12:58:41.463Z,2.07
2018-10-21T13:01:11.403Z,2.20
2018-10-21T13:03:40.891Z,2.40
2018-10-21T13:06:10.409Z,4.23
2018-10-21T13:08:39.924Z,2.47
2018-10-21T13:11:09.573Z,4.20
2018-10-21T13:13:39.349Z,1.70
2018-10-21T13:16:09.355Z,2.03
2018-10-21T13:18:38.892Z,2.03
2018-10-21T13:21:08.865Z,1.73
2018-10-21T13:23:38.422Z,2.40
2018-10-21T13:26:07.985Z,2.27
2018-10-21T13:28:37.660Z,2.60
2018-10-21T13:31:07.235Z,3.63
2018-10-21T13:33:36.846Z,3.63
2018-10-21T13:36:06.405Z,2.33
2018-10-21T13:38:36.964Z,1.83
2018-10-21T13:41:07.520Z,2.57
2018-10-21T13:43:37.108Z,4.07
2018-10-21T13:46:07.274Z,2.83
2018-10-21T13:48:36.747Z,3.57
2018-10-21T13:51:06.569Z,1.43
2018-10-21T13:53:36.703Z,3.10
2018-10-21T13:56:06.590Z,2.47
2018-10-21T13:58:36.135Z,3.20
2018-10-21T14:01:05.704Z,2.17
2018-10-21T14:03:35.619Z,1.77
2018-10-21T14:06:05.259Z,2.97
2018-10-21T14:08:34.733Z,4.07
2018-10-21T14:11:04.297Z,2.83
2018-10-21T14:13:33.849Z,2.67
2018-10-21T14:16:03.817Z,1.23
2018-10-21T14:18:33.387Z,1.50
2018-10-21T14:21:03.237Z,1.80
2018-10-21T14:23:32.768Z,1.70
2018-10-21T14:26:02.673Z,1.27
2018-10-21T14:28:32.486Z,0.73
2018-10-21T14:31:02.148Z,1.90
2018-10-21T14:33:31.675Z,2.93
2018-10-21T14:36:01.237Z,3.00
2018-10-21T14:38:30.805Z,1.37
2018-10-21T14:41:00.329Z,1.40
2018-10-21T14:43:29.857Z,1.53
2018-10-21T14:45:59.496Z,1.87
2018-10-21T14:48:29.305Z,2.13
2018-10-21T14:50:59.296Z,1.40
2018-10-21T14:53:28.881Z,1.50
2018-10-21T14:55:58.402Z,1.50
2018-10-21T14:58:28.401Z,1.87
2018-10-21T15:00:57.966Z,1.30
2018-10-21T15:03:28.417Z,1.47
2018-10-21T15:05:58.196Z,1.27
2018-10-21T15:08:27.981Z,2.30
2018-10-21T15:10:57.507Z,1.73
2018-10-21T15:13:27.055Z,1.80
2018-10-21T15:15:56.567Z,1.23
2018-10-21T15:18:26.111Z,1.10
2018-10-21T15:20:55.708Z,1.23
2018-10-21T15:23:25.185Z,1.00
2018-10-21T15:25:54.740Z,2.20
2018-10-21T15:28:24.264Z,1.10
2018-10-21T15:30:53.773Z,2.40
2018-10-21T15:33:23.319Z,1.70
2018-10-21T15:35:53.321Z,1.50
2018-10-21T15:38:23.190Z,1.43
2018-10-21T15:40:53.106Z,1.77
2018-10-21T15:43:22.595Z,1.63
2018-10-21T15:45:52.692Z,1.73
2018-10-21T15:48:22.505Z,1.20
2018-10-21T15:50:52.018Z,1.20
2018-10-21T15:53:21.609Z,1.37
2018-10-21T15:55:51.182Z,1.00
2018-10-21T15:58:21.189Z,1.67
2018-10-21T16:00:51.051Z,1.50
2018-10-21T16:03:20.606Z,1.50
2018-10-21T16:05:50.083Z,1.23
2018-10-21T16:08:19.804Z,1.20
2018-10-21T16:10:49.241Z,1.20
2018-10-21T16:13:18.858Z,1.57
2018-10-21T16:15:48.450Z,1.80
2018-10-21T16:18:18.398Z,1.33
2018-10-21T16:20:47.879Z,1.33
2018-10-21T16:23:17.399Z,1.60
2018-10-21T16:25:47.302Z,1.50
2018-10-21T16:28:16.960Z,1.40
2018-10-21T16:30:46.377Z,2.23
2018-10-21T16:33:15.951Z,1.40
2018-10-21T16:35:45.529Z,1.33
2018-10-21T16:38:15.390Z,1.60
2018-10-21T16:40:44.928Z,0.93
2018-10-21T16:43:14.551Z,2.23
2018-10-21T16:45:44.118Z,1.60
2018-10-21T16:48:13.694Z,1.50
2018-10-21T16:50:43.762Z,1.50
2018-10-21T16:53:13.390Z,3.10
2018-10-21T16:55:43.171Z,1.40
2018-10-21T16:58:12.991Z,1.77
2018-10-21T17:00:43.007Z,1.73
2018-10-21T17:03:12.551Z,2.97
2018-10-21T17:05:42.103Z,1.77
2018-10-21T17:08:11.843Z,1.77
2018-10-21T17:10:41.441Z,1.47
2018-10-21T17:13:11.234Z,1.70
2018-10-21T17:15:40.775Z,1.77
2018-10-21T17:18:10.313Z,1.80
2018-10-21T17:20:39.887Z,1.40
2018-10-21T17:23:09.443Z,1.90
2018-10-21T17:25:39.025Z,1.60
2018-10-21T17:28:08.570Z,1.83
2018-10-21T17:30:38.204Z,1.87
2018-10-21T17:33:07.934Z,3.87
2018-10-21T17:35:37.737Z,2.57
2018-10-21T17:38:07.253Z,1.63
2018-10-21T17:40:37.379Z,1.87
2018-10-21T17:43:06.987Z,1.30
2018-10-21T17:45:36.571Z,1.50
2018-10-21T17:48:06.366Z,1.60
2018-10-21T17:50:35.929Z,2.27
2018-10-21T17:53:05.543Z,1.93
2018-10-21T17:55:35.491Z,1.47
2018-10-21T17:58:05.833Z,1.53
2018-10-21T18:00:35.308Z,1.60
2018-10-21T18:03:05.177Z,1.30
2018-10-21T18:05:34.700Z,1.70
2018-10-21T18:08:04.346Z,1.40
2018-10-21T18:10:33.856Z,1.60
2018-10-21T18:13:03.459Z,3.10
2018-10-21T18:15:33.398Z,1.10
2018-10-21T18:18:03.013Z,1.30
2018-10-21T18:20:32.652Z,1.40
2018-10-21T18:23:02.171Z,1.60
2018-10-21T18:25:31.696Z,1.20
2018-10-21T18:28:01.296Z,1.30
2018-10-21T18:30:30.813Z,1.30
2018-10-21T18:33:00.363Z,1.73
2018-10-21T18:35:29.824Z,4.17
2018-10-21T18:37:59.355Z,4.57
2018-10-21T18:40:28.966Z,1.43
2018-10-21T18:42:58.551Z,2.17
2018-10-21T18:45:28.280Z,1.80
2018-10-21T18:47:57.771Z,3.62
2018-10-21T18:50:27.438Z,1.83
2018-10-21T18:52:57.478Z,1.50
2018-10-21T18:55:27.361Z,2.47
2018-10-21T18:57:56.912Z,1.60
2018-10-21T19:00:26.722Z,1.33
2018-10-21T19:02:56.622Z,1.90
2018-10-21T19:05:26.141Z,2.90
2018-10-21T19:07:55.988Z,1.63
2018-10-21T19:10:26.022Z,1.40
2018-10-21T19:13:00.057Z,1.43
2018-10-21T19:15:25.319Z,4.33
2018-10-21T19:17:55.409Z,1.83
2018-10-21T19:20:25.168Z,1.53
2018-10-21T19:22:54.873Z,1.50
2018-10-21T19:25:24.540Z,2.63
2018-10-21T19:27:54.183Z,2.20
2018-10-21T19:30:23.744Z,2.40
2018-10-21T19:32:53.381Z,2.23
2018-10-21T19:35:23.001Z,2.33
2018-10-21T19:37:52.625Z,2.43
2018-10-21T19:40:22.254Z,1.80
2018-10-21T19:42:51.788Z,1.87
2018-10-21T19:45:21.439Z,2.20
2018-10-21T19:47:51.085Z,3.10
2018-10-21T19:50:20.727Z,1.80
2018-10-21T19:52:50.468Z,2.13
2018-10-21T19:55:20.341Z,2.67
2018-10-21T19:57:50.224Z,3.60
2018-10-21T20:00:19.785Z,2.30
2018-10-21T20:02:49.413Z,3.23
2018-10-21T20:05:19.050Z,2.00
2018-10-21T20:07:49.127Z,2.33
2018-10-21T20:10:18.764Z,1.90
2018-10-21T20:12:48.431Z,3.07
2018-10-21T20:15:18.313Z,2.10
2018-10-21T20:17:48.234Z,2.00
2018-10-21T20:20:18.187Z,3.73
2018-10-21T20:22:48.198Z,2.40
2018-10-21T20:25:17.780Z,2.80
2018-10-21T20:27:47.268Z,3.83
2018-10-21T20:30:16.858Z,3.30
2018-10-21T20:32:46.395Z,2.20
2018-10-21T20:35:15.919Z,2.93
2018-10-21T20:37:45.495Z,2.60
2018-10-21T20:40:15.091Z,2.20
2018-10-21T20:42:44.611Z,2.93
2018-10-21T20:45:14.665Z,2.70
2018-10-21T20:47:44.209Z,3.27
2018-10-21T20:50:13.735Z,3.07
2018-10-21T20:52:43.365Z,4.03
2018-10-21T20:55:12.942Z,2.63
2018-10-21T20:57:42.509Z,2.43
2018-10-21T21:00:12.495Z,3.23
2018-10-21T21:02:41.995Z,3.43
2018-10-21T21:05:11.503Z,3.57
2018-10-21T21:07:41.035Z,3.03
2018-10-21T21:10:10.564Z,4.87
2018-10-21T21:12:40.231Z,3.43
2018-10-21T21:15:10.246Z,3.40
2018-10-21T21:17:40.109Z,2.83
2018-10-21T21:20:10.172Z,4.40
2018-10-21T21:22:40.278Z,4.10
2018-10-21T21:25:09.824Z,5.13
2018-10-21T21:27:39.818Z,3.70
2018-10-21T21:30:09.454Z,2.30
2018-10-21T21:32:39.115Z,3.57
2018-10-21T21:35:08.697Z,3.40
2018-10-21T21:37:38.551Z,4.63
2018-10-21T21:40:09.066Z,2.87
2018-10-21T21:42:39.276Z,2.93
2018-10-21T21:45:09.449Z,3.03
2018-10-21T21:47:39.073Z,3.93
2018-10-21T21:50:09.243Z,3.73
2018-10-21T21:52:38.738Z,3.47
2018-10-21T21:55:08.726Z,3.43
2018-10-21T21:57:38.210Z,3.40
2018-10-21T22:00:12.094Z,3.93
2018-10-21T22:02:41.611Z,4.03
2018-10-21T22:05:11.235Z,4.40
2018-10-21T22:07:41.268Z,5.07
2018-10-21T22:10:13.053Z,4.63
2018-10-21T22:12:43.664Z,3.70
2018-10-21T22:15:13.495Z,3.50
2018-10-21T22:17:43.429Z,4.43
2018-10-21T22:20:13.970Z,4.43
2018-10-21T22:22:43.948Z,3.43
2018-10-21T22:25:13.451Z,2.83
2018-10-21T22:27:43.049Z,3.00
2018-10-21T22:30:12.657Z,3.27
2018-10-21T22:32:42.384Z,3.13
2018-10-21T22:35:11.906Z,4.77
2018-10-21T22:37:41.355Z,3.00
2018-10-21T22:40:11.221Z,2.80
2018-10-21T22:42:41.023Z,2.30
2018-10-21T22:45:11.401Z,2.50
2018-10-21T22:47:40.912Z,2.33
2018-10-21T22:50:11.572Z,2.73
2018-10-21T22:52:41.659Z,3.23
2018-10-21T22:55:11.311Z,2.23
2018-10-21T22:57:40.805Z,2.27
2018-10-21T23:00:10.673Z,2.17
2018-10-21T23:02:40.530Z,1.90
2018-10-21T23:05:10.174Z,1.63
2018-10-21T23:07:39.953Z,1.90
2018-10-21T23:10:09.570Z,1.50
2018-10-21T23:12:39.326Z,1.60
2018-10-21T23:15:08.882Z,1.53
2018-10-21T23:17:39.215Z,1.73
2018-10-21T23:20:09.052Z,1.33
2018-10-21T23:22:38.607Z,1.53
2018-10-21T23:25:08.183Z,2.00
2018-10-21T23:27:38.212Z,1.23
2018-10-21T23:30:08.455Z,2.50
2018-10-21T23:32:37.926Z,1.17
2018-10-21T23:35:07.651Z,1.83
2018-10-21T23:37:37.210Z,1.20
2018-10-21T23:40:07.554Z,1.17
2018-10-21T23:42:37.303Z,0.90
2018-10-21T23:45:07.273Z,1.20
2018-10-21T23:47:36.751Z,1.20
2018-10-21T23:50:07.106Z,1.10
2018-10-21T23:52:36.665Z,1.47
2018-10-21T23:55:06.481Z,1.00
2018-10-21T23:57:36.764Z,0.87
